Time;durP1;ratioP1;P1;durP2;ratioP2;P2;SDS_P1;SDS_P2;PMS_P1;PMS_P2;Temp;Humidity;BMP_temperature;BMP_pressure;BME280_temperature;BME280_humidity;BME280_pressure;Samples;Min_cycle;Max_cycle;Signal;HPM_P1;HPM_P2
2022/04/22 00:01:13;;;;;;;;;;;;;;;2.82;100.00;98698.82;1810130;79;20144;-72
2022/04/22 00:03:41;;;;;;;;;;;;;;;2.80;100.00;98695.98;1810130;79;20184;-71
2022/04/22 00:06:10;;;;;;;;;;;;;;;2.78;100.00;98684.59;1809969;78;20121;-71
2022/04/22 00:08:38;;;;;;;;;;;;;;;2.76;100.00;98677.23;1810084;79;20116;-71
2022/04/22 00:13:55;;;;;;;;;;;;;;;2.72;100.00;98619.83;1809813;79;20420;-71
2022/04/22 00:16:27;;;;;;;;;;;;;;;2.73;100.00;98628.19;1810094;79;20137;-71
2022/04/22 00:18:55;;;;;;;;;;;;;;;2.69;100.00;98693.02;1743971;82;20146;-71
2022/04/22 00:21:23;;;;;;;;;;;;;;;2.63;100.00;98697.16;1743915;82;20145;-70
2022/04/22 00:23:50;;;;;;;;;;;;;;;2.58;100.00;98696.77;1744334;82;20119;-71
2022/04/22 00:26:19;;;;;;;;;;;;;;;2.57;100.00;98695.11;1743791;81;20114;-70
2022/04/22 00:28:47;;;;;;;;;;;;;;;2.57;100.00;98696.95;1738685;82;20435;-71
2022/04/22 00:31:16;;;;;;;;;;;;;;;2.55;100.00;98689.56;1734766;83;20139;-70
2022/04/22 00:33:44;;;;;;;;;;;;;;;2.54;100.00;98689.24;1735092;82;20136;-70
2022/04/22 00:36:12;;;;;;;;;;;;;;;2.50;100.00;98687.38;1750895;82;20174;-71
2022/04/22 00:38:41;;;;;;;;;;;;;;;2.46;100.00;98685.51;1754200;82;20153;-71
2022/04/22 00:41:09;;;;;;;;;;;;;;;2.43;100.00;98687.14;1754395;82;20161;-70
2022/04/22 00:43:42;;;;;;;;;;;;;;;2.40;100.00;98678.59;1754056;82;20138;-70
2022/04/22 00:46:09;;;;;;;;;;;;;;;2.37;100.00;98681.56;1754251;82;20462;-71
2022/04/22 00:48:36;;;;;;;;;;;;;;;2.37;100.00;98681.56;1754376;82;20152;-70
2022/04/22 00:51:05;;;;;;;;;;;;;;;2.37;100.00;98689.06;1754571;82;20406;-71
2022/04/22 00:53:39;;;;;;;;;;;;;;;2.42;100.00;98688.63;1729588;82;20126;-70
2022/04/22 00:56:08;;;;;;;;;;;;;;;2.46;100.00;98685.51;1754297;82;20462;-70
2022/04/22 00:58:36;;;;;;;;;;;;;;;2.51;100.00;98677.03;1754403;82;20176;-70
2022/04/22 01:01:03;;;;;;;;;;;;;;;2.54;100.00;98669.23;1754289;82;20121;-71
2022/04/22 01:03:31;;;;;;;;;;;;;;;2.55;100.00;98678.42;1753929;82;20470;-70
2022/04/22 01:11:35;;;;;;;;;;;;;;;2.46;100.00;98675.31;1754376;82;20153;-70
2022/04/22 01:14:04;;;;;;;;;;;;;;;2.42;100.00;98671.28;1754278;82;20466;-70
2022/04/22 01:16:31;;;;;;;;;;;;;;;2.40;100.00;98675.94;1732759;83;20146;-71
2022/04/22 01:18:58;;;;;;;;;;;;;;;2.37;100.00;98678.90;1740010;83;20135;-71
2022/04/22 01:21:26;;;;;;;;;;;;;;;2.35;100.00;98675.05;1740202;83;20128;-71
2022/04/22 01:23:53;;;;;;;;;;;;;;;2.35;100.00;98676.88;1739659;83;20084;-71
2022/04/22 01:26:22;;;;;;;;;;;;;;;2.34;100.00;98673.86;1739554;83;20400;-70
2022/04/22 01:28:49;;;;;;;;;;;;;;;2.33;100.00;98676.20;1749972;82;20121;-71
2022/04/22 01:31:17;;;;;;;;;;;;;;;2.34;100.00;98675.19;1757416;82;20140;-71
2022/04/22 01:33:46;;;;;;;;;;;;;;;2.32;100.00;98674.03;1739886;82;20137;-71
2022/04/22 01:36:12;;;;;;;;;;;;;;;2.32;100.00;98675.84;1711215;82;20097;-71
2022/04/22 01:38:41;;;;;;;;;;;;;;;2.31;100.00;98674.19;1719718;83;20097;-70
2022/04/22 01:41:08;;;;;;;;;;;;;;;2.31;100.00;98678.19;1719900;83;20155;-71
2022/04/22 01:43:36;;;;;;;;;;;;;;;2.28;100.00;98692.17;1719326;83;20196;-71
2022/04/22 01:46:04;;;;;;;;;;;;;;;2.29;100.00;98689.00;1719910;83;20097;-71
2022/04/22 01:48:32;;;;;;;;;;;;;;;2.27;100.00;98682.98;1719680;83;20105;-71
2022/04/22 01:50:59;;;;;;;;;;;;;;;2.25;100.00;98685.80;1719622;83;20106;-71
2022/04/22 01:53:27;;;;;;;;;;;;;;;2.22;100.00;98689.27;1719879;83;20109;-71
2022/04/22 01:55:55;;;;;;;;;;;;;;;2.18;100.00;98688.73;1719786;82;20165;-71
2022/04/22 01:58:23;;;;;;;;;;;;;;;2.16;100.00;98692.05;1719430;83;20413;-70
2022/04/22 02:00:52;;;;;;;;;;;;;;;2.16;100.00;98692.52;1719740;83;20421;-71
2022/04/22 02:03:20;;;;;;;;;;;;;;;2.15;100.00;98690.86;1719738;83;20401;-70
2022/04/22 02:05:48;;;;;;;;;;;;;;;2.14;100.00;98690.00;1719450;83;20113;-70
2022/04/22 02:08:20;;;;;;;;;;;;;;;2.10;100.00;98693.96;1719651;83;20389;-71
2022/04/22 02:10:47;;;;;;;;;;;;;;;2.08;100.00;98697.28;1719753;83;20409;-70
2022/04/22 02:13:14;;;;;;;;;;;;;;;2.05;100.00;98704.23;1719689;83;20138;-70
2022/04/22 02:15:41;;;;;;;;;;;;;;;2.03;100.00;98703.05;1719443;83;20101;-69
2022/04/22 02:18:08;;;;;;;;;;;;;;;2.03;100.00;98703.55;1719765;83;20464;-70
2022/04/22 02:20:35;;;;;;;;;;;;;;;2.05;100.00;98709.56;1777688;80;20128;-70
2022/04/22 02:23:03;;;;;;;;;;;;;;;2.07;100.00;98716.92;1786358;80;20140;-71
2022/04/22 02:25:30;;;;;;;;;;;;;;;2.06;100.00;98725.92;1786266;80;20469;-71
2022/04/22 02:30:44;;;;;;;;;;;;;;;1.96;100.00;98727.30;1826145;79;20124;-70
2022/04/22 02:33:11;;;;;;;;;;;;;;;1.94;100.00;98729.27;1826093;79;20100;-71
2022/04/22 02:35:40;;;;;;;;;;;;;;;1.92;100.00;98733.09;1817856;78;20148;-71
2022/04/22 02:38:07;;;;;;;;;;;;;;;1.88;100.00;98734.70;1818118;79;20147;-70
2022/04/22 02:46:08;;;;;;;;;;;;;;;1.86;100.00;98734.49;1817704;79;20144;-71
2022/04/22 02:48:35;;;;;;;;;;;;;;;1.88;100.00;98740.04;1818031;79;20180;-71
2022/04/22 02:51:01;;;;;;;;;;;;;;;1.91;100.00;98738.89;1818386;78;20417;-71
2022/04/22 02:53:28;;;;;;;;;;;;;;;1.92;100.00;98739.25;1818577;79;20128;-71
2022/04/22 02:55:56;;;;;;;;;;;;;;;1.93;100.00;98740.94;1818312;79;20117;-70
2022/04/22 02:58:23;;;;;;;;;;;;;;;1.96;100.00;98745.95;1811987;79;20420;-70
2022/04/22 03:00:50;;;;;;;;;;;;;;;1.99;100.00;98740.84;1818218;79;20164;-70
2022/04/22 03:03:17;;;;;;;;;;;;;;;2.02;100.00;98735.19;1818028;79;20129;-71
2022/04/22 03:05:45;;;;;;;;;;;;;;;2.02;100.00;98738.72;1818123;79;20492;-71
2022/04/22 03:08:13;;;;;;;;;;;;;;;2.05;100.00;98733.09;1818550;79;20125;-71
2022/04/22 03:10:41;;;;;;;;;;;;;;;2.08;100.00;98732.77;1819050;79;20144;-70
2022/04/22 03:13:11;;;;;;;;;;;;;;;2.11;100.00;98740.12;1818242;78;20204;-71
2022/04/22 03:15:38;;;;;;;;;;;;;;;2.14;100.00;98730.00;1818403;79;20140;-71
2022/04/22 03:18:05;;;;;;;;;;;;;;;2.16;100.00;98729.38;1818491;79;20440;-70
2022/04/22 03:20:32;;;;;;;;;;;;;;;2.17;100.00;98731.04;1818355;79;20121;-71
2022/04/22 03:22:59;;;;;;;;;;;;;;;2.20;100.00;98739.25;1818164;79;20116;-70
2022/04/22 03:25:28;;;;;;;;;;;;;;;2.22;100.00;98735.44;1818646;79;20144;-70
2022/04/22 03:27:55;;;;;;;;;;;;;;;2.25;100.00;98733.81;1820286;79;20127;-70
2022/04/22 03:30:22;;;;;;;;;;;;;;;2.29;100.00;98731.68;1827027;79;20138;-69
2022/04/22 03:32:49;;;;;;;;;;;;;;;2.32;100.00;98730.05;1826853;79;20103;-70
2022/04/22 03:35:16;;;;;;;;;;;;;;;2.35;100.00;98724.39;1818802;78;20152;-71
2022/04/22 03:37:44;;;;;;;;;;;;;;;2.38;100.00;98725.94;1818326;79;20128;-71
2022/04/22 03:40:12;;;;;;;;;;;;;;;2.41;100.00;98732.31;1818543;79;20132;-71
2022/04/22 03:42:40;;;;;;;;;;;;;;;2.41;100.00;98729.64;1818606;79;20136;-69
2022/04/22 03:45:07;;;;;;;;;;;;;;;2.42;100.00;98730.80;1818407;79;20129;-70
2022/04/22 03:47:34;;;;;;;;;;;;;;;2.42;100.00;98728.64;1818225;79;20116;-71
2022/04/22 03:50:01;;;;;;;;;;;;;;;2.41;100.00;98726.98;1818436;79;20140;-70
2022/04/22 03:52:30;;;;;;;;;;;;;;;2.42;100.00;98729.97;1817937;79;20124;-71
2022/04/22 03:54:59;;;;;;;;;;;;;;;2.42;100.00;98730.80;1818503;79;20152;-71
2022/04/22 04:00:13;;;;;;;;;;;;;;;2.42;100.00;98725.97;1818413;79;20121;-70
2022/04/22 04:02:42;;;;;;;;;;;;;;;2.45;100.00;98727.01;1818622;79;20121;-70
2022/04/22 04:05:11;;;;;;;;;;;;;;;2.49;100.00;98727.55;1818299;79;20452;-71
2022/04/22 04:07:39;;;;;;;;;;;;;;;2.57;100.00;98723.64;1818305;79;20104;-70
2022/04/22 04:15:58;;;;;;;;;;;;;;;2.76;100.00;98707.94;1818373;79;20128;-70
2022/04/22 04:18:32;;;;;;;;;;;;;;;2.83;100.00;98708.52;1818423;79;20116;-71
2022/04/22 04:23:49;;;;;;;;;;;;;;;2.99;100.00;98693.60;1818124;79;20152;-71
2022/04/22 04:26:16;;;;;;;;;;;;;;;3.01;100.00;98689.80;1818674;79;20141;-70
2022/04/22 04:28:44;;;;;;;;;;;;;;;3.06;100.00;98686.64;1818335;79;20137;-70
2022/04/22 04:31:11;;;;;;;;;;;;;;;3.17;100.00;98678.39;1818543;79;20133;-71
2022/04/22 04:33:38;;;;;;;;;;;;;;;3.30;100.00;98668.61;1812007;79;20102;-70
2022/04/22 04:36:06;;;;;;;;;;;;;;;3.40;100.00;98665.34;1818447;79;20142;-71
2022/04/22 04:38:35;;;;;;;;;;;;;;;3.55;100.00;98664.73;1818323;79;20121;-71
2022/04/22 04:41:05;;;;;;;;;;;;;;;3.68;100.00;98657.59;1818866;79;20103;-70
2022/04/22 04:43:34;;;;;;;;;;;;;;;3.78;100.00;98648.45;1818728;79;20118;-70
2022/04/22 04:46:04;;;;;;;;;;;;;;;3.86;100.00;98652.15;1818807;79;20395;-72
2022/04/22 04:48:31;;;;;;;;;;;;;;;3.89;100.00;98651.83;1818381;79;20185;-71
2022/04/22 04:51:00;;;;;;;;;;;;;;;3.98;100.00;98640.15;1818321;79;20095;-71
2022/04/22 04:53:27;;;;;;;;;;;;;;;4.07;100.00;98639.67;1818500;79;20126;-71
2022/04/22 04:55:55;;;;;;;;;;;;;;;4.16;100.00;98641.36;1818327;79;20446;-71
2022/04/22 04:58:24;;;;;;;;;;;;;;;4.17;100.00;98640.38;1818038;79;20139;-71
2022/04/22 05:00:55;;;;;;;;;;;;;;;4.12;100.00;98643.52;1819106;79;20375;-72
2022/04/22 05:03:21;;;;;;;;;;;;;;;4.16;100.00;98634.19;1818482;79;20110;-71
2022/04/22 05:05:48;;;;;;;;;;;;;;;4.24;100.00;98633.87;1818565;79;20106;-72
2022/04/22 05:08:15;;;;;;;;;;;;;;;4.34;100.00;98631.37;1818350;78;20098;-71
2022/04/22 05:10:42;;;;;;;;;;;;;;;4.44;100.00;98627.18;1818362;79;20391;-72
2022/04/22 05:13:09;;;;;;;;;;;;;;;4.54;100.00;98619.00;1818263;79;20176;-71
2022/04/22 05:15:39;;;;;;;;;;;;;;;4.67;100.00;98619.83;1818636;79;20097;-71
2022/04/22 05:18:06;;;;;;;;;;;;;;;4.75;100.00;98623.85;1816740;79;20134;-71
2022/04/22 05:20:33;;;;;;;;;;;;;;;4.66;100.00;98624.36;1816760;79;20094;-70
2022/04/22 05:23:01;;;;;;;;;;;;;;;4.64;100.00;98636.22;1816251;79;20107;-70
2022/04/22 05:25:28;;;;;;;;;;;;;;;4.54;100.00;98641.76;1816793;79;20121;-71
2022/04/22 05:27:57;;;;;;;;;;;;;;;4.49;100.00;98644.92;1809996;79;20101;-71
2022/04/22 05:33:10;;;;;;;;;;;;;;;4.78;100.00;98631.56;1786605;79;20136;-71
2022/04/22 05:35:37;;;;;;;;;;;;;;;4.99;100.00;98617.61;1810354;79;20091;-71
2022/04/22 05:38:05;;;;;;;;;;;;;;;5.19;100.00;98611.88;1791503;79;20202;-71
2022/04/22 05:40:36;;;;;;;;;;;;;;;5.38;100.00;98601.27;1806409;79;20102;-70
2022/04/22 05:43:04;;;;;;;;;;;;;;;5.61;100.00;98585.26;1808378;79;20122;-71
2022/04/22 05:45:33;;;;;;;;;;;;;;;5.85;100.00;98580.28;1810375;79;20098;-71
2022/04/22 05:48:00;;;;;;;;;;;;;;;6.05;100.00;98572.64;1810818;79;20154;-71
2022/04/22 05:50:28;;;;;;;;;;;;;;;6.23;100.00;98566.97;1810561;79;20544;-71
2022/04/22 05:52:57;;;;;;;;;;;;;;;6.35;100.00;98564.72;1791960;79;20439;-70
2022/04/22 05:57:56;;;;;;;;;;;;;;;6.46;100.00;98575.87;1769344;81;20492;-72
2022/04/22 06:00:25;;;;;;;;;;;;;;;6.52;100.00;98584.22;1770388;79;20106;-70
2022/04/22 06:02:54;;;;;;;;;;;;;;;6.50;100.00;98594.28;1807509;79;20177;-71
2022/04/22 06:05:23;;;;;;;;;;;;;;;6.52;100.00;98607.05;1780377;80;20097;-71
2022/04/22 06:10:37;;;;;;;;;;;;;;;6.76;100.00;98628.30;1792564;78;20117;-71
2022/04/22 06:13:06;;;;;;;;;;;;;;;6.74;100.00;98649.15;1797619;78;20199;-73
2022/04/22 06:15:34;;;;;;;;;;;;;;;6.68;100.00;98667.34;1814388;78;20133;-72
2022/04/22 06:18:03;;;;;;;;;;;;;;;6.52;100.00;98687.09;1817804;78;20165;-72
2022/04/22 06:20:32;;;;;;;;;;;;;;;6.42;100.00;98707.97;1806848;78;20094;-72
2022/04/22 06:22:58;;;;;;;;;;;;;;;6.37;100.00;98731.82;1790987;78;20160;-72
2022/04/22 06:25:28;;;;;;;;;;;;;;;6.39;100.00;98742.73;1783701;80;20145;-72
2022/04/22 06:27:55;;;;;;;;;;;;;;;6.48;100.00;98746.70;1785584;78;20428;-72
2022/04/22 06:30:22;;;;;;;;;;;;;;;6.48;100.00;98756.95;1805147;78;20160;-73
2022/04/22 06:32:52;;;;;;;;;;;;;;;6.61;100.00;98758.54;1801741;78;20160;-73
2022/04/22 06:35:21;;;;;;;;;;;;;;;6.67;100.00;98769.08;1795936;78;20124;-72
2022/04/22 06:37:49;;;;;;;;;;;;;;;6.91;100.00;98757.34;1820560;77;20422;-71
2022/04/22 06:45:51;;;;;;;;;;;;;;;7.32;100.00;98754.84;1755995;80;20101;-72
2022/04/22 06:48:29;;;;;;;;;;;;;;;7.61;100.00;98740.60;1766050;81;20122;-69
2022/04/22 06:50:56;;;;;;;;;;;;;;;7.91;100.00;98740.62;1762641;81;20129;-73
2022/04/22 06:53:23;;;;;;;;;;;;;;;8.20;100.00;98728.16;1785175;80;20096;-72
2022/04/22 06:55:51;;;;;;;;;;;;;;;8.54;100.00;98723.54;1787878;80;20124;-70
2022/04/22 06:58:19;;;;;;;;;;;;;;;8.84;100.00;98710.80;1778760;80;20112;-70
2022/04/22 07:00:48;;;;;;;;;;;;;;;9.04;100.00;98708.27;1779239;80;20107;-72
2022/04/22 07:03:16;;;;;;;;;;;;;;;9.26;100.00;98710.45;1777463;80;20132;-73
2022/04/22 07:05:46;;;;;;;;;;;;;;;9.53;100.00;98698.50;1773146;80;20467;-66
2022/04/22 07:08:14;;;;;;;;;;;;;;;9.50;100.00;98697.02;1780021;80;20108;-66
2022/04/22 07:10:43;;;;;;;;;;;;;;;9.70;100.00;98744.90;1769396;80;20088;-66
2022/04/22 07:13:12;;;;;;;;;;;;;;;9.97;100.00;98803.98;1779737;80;20108;-65
2022/04/22 07:15:40;;;;;;;;;;;;;;;10.23;100.00;98870.85;1786828;80;20159;-69
2022/04/22 07:18:09;;;;;;;;;;;;;;;10.43;100.00;98979.10;1782543;80;20100;-68
2022/04/22 07:20:38;;;;;;;;;;;;;;;10.58;100.00;99095.23;1775512;80;20196;-67
2022/04/22 07:23:08;;;;;;;;;;;;;;;10.80;100.00;99202.01;1779428;80;20108;-66
2022/04/22 07:25:37;;;;;;;;;;;;;;;11.00;100.00;99356.41;1784665;80;20128;-71
2022/04/22 07:28:06;;;;;;;;;;;;;;;11.05;100.00;99439.69;1773746;80;20497;-70
2022/04/22 07:30:34;;;;;;;;;;;;;;;11.19;100.00;99497.00;1753470;80;20096;-71
2022/04/22 07:33:01;;;;;;;;;;;;;;;11.45;100.00;99518.16;1780534;80;20132;-69
2022/04/22 07:35:31;;;;;;;;;;;;;;;11.75;100.00;99562.25;1777244;80;20460;-71
2022/04/22 07:37:59;;;;;;;;;;;;;;;11.99;100.00;99606.83;1773192;80;20135;-69
2022/04/22 07:40:28;;;;;;;;;;;;;;;12.02;100.00;99664.19;1787271;79;20164;-72
2022/04/22 07:48:29;;;;;;;;;;;;;;;12.28;100.00;99772.63;1792343;79;20126;-72
2022/04/22 07:50:56;;;;;;;;;;;;;;;12.32;100.00;99795.61;1797233;79;20157;-70
2022/04/22 07:53:23;;;;;;;;;;;;;;;12.38;100.00;99822.48;1791598;79;20098;-73
2022/04/22 07:55:50;;;;;;;;;;;;;;;12.32;100.00;99849.84;1798066;79;20106;-72
2022/04/22 07:58:19;;;;;;;;;;;;;;;12.17;100.00;99877.47;1771647;78;20097;-72
2022/04/22 08:00:46;;;;;;;;;;;;;;;12.26;100.00;99887.20;1770879;81;20105;-72
2022/04/22 08:05:43;;;;;;;;;;;;;;;12.39;100.00;99908.23;1703172;82;20402;-71
2022/04/22 08:08:11;;;;;;;;;;;;;;;12.41;100.00;99908.39;1706412;83;20101;-68
2022/04/22 08:10:39;;;;;;;;;;;;;;;12.37;100.00;99915.19;1722701;83;20144;-72
2022/04/22 08:13:07;;;;;;;;;;;;;;;12.46;100.00;99901.03;1726456;83;20160;-73
2022/04/22 08:15:34;;;;;;;;;;;;;;;12.47;100.00;99906.27;1726534;83;20097;-72
2022/04/22 08:18:03;;;;;;;;;;;;;;;12.58;100.00;99892.75;1726402;83;20105;-73
2022/04/22 08:20:32;;;;;;;;;;;;;;;12.82;100.00;99891.63;1726025;83;20473;-71
2022/04/22 08:22:59;;;;;;;;;;;;;;;13.06;100.00;99880.94;1725437;83;20160;-70
2022/04/22 08:25:27;;;;;;;;;;;;;;;13.38;100.00;99872.55;1725300;83;20112;-70
2022/04/22 08:27:55;;;;;;;;;;;;;;;13.51;100.00;99895.77;1725155;83;20152;-72
2022/04/22 08:30:22;;;;;;;;;;;;;;;13.54;100.00;99896.72;1724877;83;20098;-73
2022/04/22 08:32:50;;;;;;;;;;;;;;;13.58;100.00;99902.11;1719441;83;20134;-71
2022/04/22 08:35:17;;;;;;;;;;;;;;;13.84;100.00;99894.70;1682920;84;20139;-71
2022/04/22 08:40:16;;;;;;;;;;;;;;;14.58;100.00;99897.98;1642450;87;20163;-72
2022/04/22 08:42:49;;;;;;;;;;;;;;;15.00;100.00;99899.65;1639678;88;20151;-71
2022/04/22 08:45:20;;;;;;;;;;;;;;;15.41;100.00;99917.49;1643494;87;20200;-68
2022/04/22 08:50:33;;;;;;;;;;;;;;;16.03;100.00;99964.59;1645479;86;20192;-72
2022/04/22 08:53:07;;;;;;;;;;;;;;;15.88;100.00;100012.48;1644953;87;20111;-73
2022/04/22 08:55:36;;;;;;;;;;;;;;;15.65;100.00;100020.98;1639610;87;20170;-72
2022/04/22 09:00:41;;;;;;;;;;;;;;;15.93;100.00;100005.36;1558382;91;20158;-73
2022/04/22 09:03:06;;;;;;;;;;;;;;;15.82;100.00;100026.42;1622327;87;20233;-71
2022/04/22 09:05:34;;;;;;;;;;;;;;;15.85;100.00;100004.73;1627817;87;20172;-70
2022/04/22 09:08:02;;;;;;;;;;;;;;;16.07;100.00;99994.48;1615126;89;20173;-70
2022/04/22 09:10:31;;;;;;;;;;;;;;;16.40;100.00;99986.84;1592804;89;21933;-72
2022/04/22 09:13:00;;;;;;;;;;;;;;;16.75;100.00;100007.05;1588787;89;20143;-70
2022/04/22 09:15:31;;;;;;;;;;;;;;;17.02;100.00;100023.75;1614524;89;20135;-70
2022/04/22 09:18:11;;;;;;;;;;;;;;;17.23;100.00;100140.13;1615253;89;20431;-71
2022/04/22 09:20:45;;;;;;;;;;;;;;;17.34;100.00;100269.83;1615484;89;20246;-70
2022/04/22 09:23:31;;;;;;;;;;;;;;;17.33;100.00;100274.96;1574158;91;20167;-72
2022/04/22 09:26:01;;;;;;;;;;;;;;;17.02;100.00;100285.98;1574070;91;20178;-69
2022/04/22 09:28:29;;;;;;;;;;;;;;;16.82;100.00;100289.14;1574365;91;20463;-72
2022/04/22 09:31:02;;;;;;;;;;;;;;;16.68;100.00;100282.30;1574222;91;20214;-71
2022/04/22 09:33:44;;;;;;;;;;;;;;;16.48;100.00;100286.33;1574265;91;20182;-72
2022/04/22 09:44:59;;;;;;;;;;;;;;;14.72;100.00;100280.77;1613159;89;20148;-71
2022/04/22 09:47:31;;;;;;;;;;;;;;;14.33;100.00;100277.03;1612825;87;20600;-73
2022/04/22 09:50:00;;;;;;;;;;;;;;;14.07;100.00;100278.34;1612858;89;20183;-72
2022/04/22 09:52:30;;;;;;;;;;;;;;;13.83;100.00;100274.05;1613162;89;20126;-71
2022/04/22 09:55:06;;;;;;;;;;;;;;;13.60;100.00;100272.77;1612588;89;20133;-71
2022/04/22 09:57:54;;;;;;;;;;;;;;;13.50;100.00;100261.31;1612949;89;20147;-71
2022/04/22 10:00:21;;;;;;;;;;;;;;;13.46;100.00;100252.69;1612791;89;20102;-72
2022/04/22 10:05:19;;;;;;;;;;;;;;;13.91;100.00;100233.69;1623712;88;20486;-71
2022/04/22 10:07:50;;;;;;;;;;;;;;;14.41;100.00;100239.68;1624031;88;20140;-72
2022/04/22 10:12:49;;;;;;;;;;;;;;;14.92;100.00;100246.09;1535354;90;20512;-71
2022/04/22 10:15:17;;;;;;;;;;;;;;;15.31;100.00;100238.80;1536063;94;20176;-71
2022/04/22 10:17:48;;;;;;;;;;;;;;;15.84;100.00;100237.52;1536050;93;20127;-68
2022/04/22 10:20:17;;;;;;;;;;;;;;;16.12;100.00;100245.64;1495471;95;20253;-71
2022/04/22 10:22:50;;;;;;;;;;;;;;;16.28;100.00;100256.20;1509814;95;20216;-72
2022/04/22 10:25:17;;;;;;;;;;;;;;;16.42;100.00;100258.47;1521005;94;20188;-70
2022/04/22 10:27:46;;;;;;;;;;;;;;;16.36;100.00;100281.63;1522541;94;20179;-71
2022/04/22 10:30:14;;;;;;;;;;;;;;;16.33;100.00;100281.00;1502423;96;20118;-69
2022/04/22 10:32:42;;;;;;;;;;;;;;;16.36;100.00;100295.27;1520817;94;20248;-71
2022/04/22 10:35:12;;;;;;;;;;;;;;;16.38;100.00;100304.09;1501486;96;20137;-72
2022/04/22 10:37:41;;;;;;;;;;;;;;;16.59;100.00;100306.73;1502729;94;20467;-72
2022/04/22 10:40:21;;;;;;;;;;;;;;;16.81;100.00;100314.78;1520408;94;20153;-71
2022/04/22 10:42:52;;;;;;;;;;;;;;;16.77;100.00;100312.13;1511979;95;20154;-71
2022/04/22 10:48:26;;;;;;;;;;;;;;;16.28;100.00;100317.59;1512034;95;20134;-71
2022/04/22 10:50:59;;;;;;;;;;;;;;;16.01;100.00;100309.80;1512137;94;20158;-70
2022/04/22 10:53:33;;;;;;;;;;;;;;;15.98;100.00;100304.73;1512485;95;20457;-71
2022/04/22 10:56:25;;;;;;;;;;;;;;;16.16;100.00;100302.00;1512656;95;20163;-71
2022/04/22 10:59:20;;;;;;;;;;;;;;;16.31;100.00;100306.28;1510053;92;20175;-70
2022/04/22 11:01:48;;;;;;;;;;;;;;;16.39;100.00;100305.27;1506909;95;20121;-70
2022/04/22 11:04:31;;;;;;;;;;;;;;;16.78;100.00;100300.17;1500001;96;20149;-73
2022/04/22 11:06:57;;;;;;;;;;;;;;;17.19;100.00;100304.20;1519814;93;20136;-71
2022/04/22 11:09:30;;;;;;;;;;;;;;;17.11;100.00;100310.38;1555356;91;20147;-70
2022/04/22 11:11:59;;;;;;;;;;;;;;;17.01;100.00;100305.30;1570320;91;20178;-72
2022/04/22 11:14:32;;;;;;;;;;;;;;;16.91;100.00;100301.62;1568943;91;20154;-71
2022/04/22 11:17:33;;;;;;;;;;;;;;;17.02;100.00;100292.80;1604076;87;20158;-70
2022/04/22 11:20:00;;;;;;;;;;;;;;;17.44;100.00;100279.81;1645969;87;20150;-71
2022/04/22 11:22:56;;;;;;;;;;;;;;;17.92;100.00;100271.05;1646126;87;20177;-70
2022/04/22 11:25:25;;;;;;;;;;;;;;;17.87;100.00;100280.45;1647155;87;20139;-71
2022/04/22 11:27:57;;;;;;;;;;;;;;;17.43;100.00;100283.59;1647210;87;20111;-70
2022/04/22 11:30:25;;;;;;;;;;;;;;;17.25;100.00;100288.85;1646834;87;20107;-70
2022/04/22 11:32:58;;;;;;;;;;;;;;;17.33;100.00;100282.33;1639984;87;20295;-72
2022/04/22 11:35:28;;;;;;;;;;;;;;;17.27;100.00;100286.21;1559626;90;20436;-71
2022/04/22 11:38:00;;;;;;;;;;;;;;;17.05;100.00;100284.70;1580325;90;20101;-70
2022/04/22 11:40:27;;;;;;;;;;;;;;;16.59;100.00;100290.86;1587793;90;20148;-71
2022/04/22 11:42:55;;;;;;;;;;;;;;;16.20;100.00;100280.95;1588051;90;20226;-71
2022/04/22 11:45:22;;;;;;;;;;;;;;;16.20;100.00;100277.36;1614526;83;20113;-70
2022/04/22 11:47:51;;;;;;;;;;;;;;;16.57;100.00;100276.05;1724452;83;20390;-70
2022/04/22 11:50:21;;;;;;;;;;;;;;;16.79;100.00;100273.19;1724560;83;20234;-72
2022/04/22 11:52:56;;;;;;;;;;;;;;;16.76;100.00;100272.23;1724348;83;20113;-70
2022/04/22 11:55:24;;;;;;;;;;;;;;;16.68;100.00;100286.92;1724399;83;20089;-71
2022/04/22 11:57:51;;;;;;;;;;;;;;;16.62;100.00;100289.09;1724878;83;20133;-72
2022/04/22 12:05:52;;;;;;;;;;;;;;;16.19;100.00;100299.72;1723965;83;20101;-71
2022/04/22 12:08:19;;;;;;;;;;;;;;;15.96;100.00;100288.26;1724154;83;20136;-72
2022/04/22 12:10:48;;;;;;;;;;;;;;;15.74;100.00;100278.73;1723304;83;20109;-71
2022/04/22 12:13:16;;;;;;;;;;;;;;;15.67;100.00;100275.11;1773987;79;20116;-71
2022/04/22 12:15:48;;;;;;;;;;;;;;;15.45;100.00;100270.25;1796351;80;20404;-71
2022/04/22 12:18:36;;;;;;;;;;;;;;;15.32;100.00;100266.90;1797438;79;20127;-72
2022/04/22 12:21:04;;;;;;;;;;;;;;;15.29;100.00;100262.67;1797748;80;20119;-70
2022/04/22 12:23:38;;;;;;;;;;;;;;;15.28;100.00;100258.77;1724544;83;20137;-70
2022/04/22 12:26:08;;;;;;;;;;;;;;;15.16;100.00;100266.12;1724164;83;20117;-71
2022/04/22 12:28:36;;;;;;;;;;;;;;;14.95;100.00;100256.61;1706731;83;20120;-70
2022/04/22 12:31:04;;;;;;;;;;;;;;;14.78;100.00;100266.39;1694471;85;20168;-70
2022/04/22 12:33:33;;;;;;;;;;;;;;;14.69;100.00;100252.56;1694441;83;20111;-71
2022/04/22 12:36:04;;;;;;;;;;;;;;;14.64;100.00;100245.48;1694493;85;20124;-71
2022/04/22 12:38:32;;;;;;;;;;;;;;;14.59;100.00;100243.36;1665581;86;20137;-71
2022/04/22 12:41:00;;;;;;;;;;;;;;;14.51;100.00;100248.88;1679988;85;20104;-71
2022/04/22 12:43:31;;;;;;;;;;;;;;;14.35;100.00;100239.06;1685504;85;20155;-72
2022/04/22 12:52:17;;;;;;;;;;;;;;;14.16;100.00;100234.22;1724218;83;20113;-72
2022/04/22 12:57:18;;;;;;;;;;;;;;;14.09;100.00;100237.37;1607895;89;20143;-73
2022/04/22 12:59:50;;;;;;;;;;;;;;;14.12;100.00;100231.05;1586129;91;20164;-71
2022/04/22 13:02:18;;;;;;;;;;;;;;;14.10;100.00;100226.84;1539231;93;20120;-71
2022/04/22 13:04:56;;;;;;;;;;;;;;;14.12;100.00;100217.45;1528694;94;20145;-72
2022/04/22 13:07:24;;;;;;;;;;;;;;;14.13;100.00;100225.08;1540394;93;20176;-71
2022/04/22 13:09:51;;;;;;;;;;;;;;;14.14;100.00;100220.81;1528468;94;20117;-72
2022/04/22 13:12:18;;;;;;;;;;;;;;;14.15;100.00;100226.59;1540096;93;20124;-72
2022/04/22 13:14:46;;;;;;;;;;;;;;;14.16;100.00;100230.98;1527589;94;20159;-70
2022/04/22 13:17:19;;;;;;;;;;;;;;;14.21;100.00;100233.14;1540023;93;20128;-70
2022/04/22 13:19:48;;;;;;;;;;;;;;;14.18;100.00;100237.59;1518027;94;20150;-70
2022/04/22 13:22:15;;;;;;;;;;;;;;;14.07;100.00;100236.20;1516898;94;20450;-71
2022/04/22 13:24:44;;;;;;;;;;;;;;;14.02;100.00;100232.71;1517222;94;20402;-69
2022/04/22 13:27:13;;;;;;;;;;;;;;;13.98;100.00;100241.42;1516886;94;20134;-71
2022/04/22 13:29:40;;;;;;;;;;;;;;;14.00;100.00;100240.71;1490514;96;20159;-71
2022/04/22 13:32:08;;;;;;;;;;;;;;;14.13;100.00;100244.11;1523052;91;20148;-71
2022/04/22 13:34:37;;;;;;;;;;;;;;;14.33;100.00;100240.30;1567545;90;20116;-70
2022/04/22 13:37:04;;;;;;;;;;;;;;;14.44;100.00;100236.55;1590297;90;20112;-70
2022/04/22 13:39:32;;;;;;;;;;;;;;;14.46;100.00;100238.25;1590544;89;20176;-69
2022/04/22 13:42:00;;;;;;;;;;;;;;;14.43;100.00;100238.97;1602568;90;20122;-72
2022/04/22 13:52:44;;;;;;;;;;;;;;;15.00;100.00;100229.11;1602757;89;20320;-71
2022/04/22 13:55:12;;;;;;;;;;;;;;;15.21;100.00;100223.83;1613971;89;20150;-71
2022/04/22 13:57:39;;;;;;;;;;;;;;;15.20;100.00;100244.78;1600391;89;20139;-71
2022/04/22 14:00:07;;;;;;;;;;;;;;;15.03;100.00;100236.56;1702449;84;20440;-70
2022/04/22 14:02:35;;;;;;;;;;;;;;;14.88;100.00;100238.00;1711812;84;20144;-70
2022/04/22 14:05:03;;;;;;;;;;;;;;;14.88;100.00;100235.28;1712011;84;20113;-70
2022/04/22 14:07:31;;;;;;;;;;;;;;;14.92;100.00;100222.95;1713256;84;20086;-71
2022/04/22 14:10:00;;;;;;;;;;;;;;;14.98;100.00;100224.39;1712737;83;20160;-71
2022/04/22 14:12:27;;;;;;;;;;;;;;;14.93;100.00;100230.93;1712192;84;20141;-71
2022/04/22 14:14:54;;;;;;;;;;;;;;;14.72;100.00;100230.94;1712619;84;20126;-70
2022/04/22 14:17:22;;;;;;;;;;;;;;;14.56;100.00;100232.82;1712426;84;20513;-71
2022/04/22 14:19:49;;;;;;;;;;;;;;;14.41;100.00;100227.93;1712480;84;20173;-70
2022/04/22 14:22:18;;;;;;;;;;;;;;;14.34;100.00;100229.73;1711805;84;20122;-72
2022/04/22 14:24:47;;;;;;;;;;;;;;;14.27;100.00;100246.48;1711988;84;20169;-70